Kezdőlap
METAR-TAF:

METAR-TAF

Repülőterek :

Glencoe Municipal Airport (Vernon Perschau Field)

Glencoe, Minnesota, Amerikai Egyesült Államok

földrajzi szélesség: 44-45-22N, földrajzi hosszúság: 094-04-52W, magasság: 302 m

Jelenlegi meteorológiai megfigyelések

A jelentés 17 perccel ezelõtt készült, 12:35 UTC
Észak-északkeleti szél 14 kt széllökések: 32 kt
Hőmérséklet 20°C
Páratartalom 94%
Légköri nyomás 1019 hPa
Látótávolság: 2.4 km
Szakadozott felhőzet 700 lábon
Szakadozott felhőzet 1500 lábon
Borult 2400 lábon
zivatar, erőteljes esõzés

METAR: KGYL 281235Z AUTO 03014G32KT 1 1/2SM +TSRA BKN007 BKN015 OVC024 20/19 A3010 RMK AO2 LTG DSNT ALQS P0045 T02020193

Idő: 07:52 (12:52 UTC)


TAF: hiányzik

Meteorológiai megfigyelések és előrejelzések több, mint 4000 repülőtéren (METAR és TAF jelentéseket).

A térképen piros és sárga pontok jelzik az elérhető meteorológiai állomásokat.

Mozgassa az egeret a pont fölött, hogy megjelenjen az állomás neve.

Azután kattintson az időjárási megfigyelések és előrejelzések megtekintéséhez.

A térkép megváltoztatása: kattintson a fekete keresztel jelölt zöld gombra ráközelítéshez, a vonallal jelölt zöld gombra távolításhoz, vagy a zöld nyilakra a szomszédos térképek eléréséhez.


METAR-TAF: